Flight Track Log - Related Links

Times and Time Zones

All times are in EDT time to prevent confusion due to time zone crossing. See the LXJ437 flight status page for this flight to view local times or setup timezone preferences in your user account.

Time Position Orientation Groundspeed Altitude Reporting Facility
EDT Latitude Longitude Course Direction KTS MPH feet Rate Location/Type
Mon 07:46:08 PM 41.9667 -87.9333 251° West 179 206 1,800  Level Chicago TRACON
Mon 07:47:08 PM 41.9500 -88.0000 251° West 213 245 3,700 2,368 Climbing Chicago TRACON
Mon 07:48:02 PM 42.0167 -88.0167 349° North 271 312 6,300 3,355 Climbing Chicago TRACON
Mon 07:50:14 PM 42.1836 -88.0231 358° North 311 358 14,100 3,773 Climbing Chicago Center
Mon 07:51:16 PM 42.2728 -87.9964 12° North 338 389 18,500 3,805 Climbing Chicago Center
Mon 07:52:17 PM 42.3614 -87.9383 26° Northeast 349 402 21,900 2,852 Climbing Chicago Center
Mon 07:53:18 PM 42.4575 -87.8769 25° Northeast 377 434 24,300 2,585 Climbing Chicago Center
Mon 07:54:20 PM 42.5578 -87.8100 26° Northeast 398 458 27,200 2,732 Climbing Chicago Center
Mon 07:55:21 PM 42.6536 -87.7467 26° Northeast 387 445 29,900 1,854 Climbing Chicago Center
Mon 07:56:23 PM 42.7753 -87.6622 27° Northeast 421 484 31,000 1,016 Climbing Chicago Center
Mon 07:57:25 PM 42.8506 -87.5192 54° Northeast 464 534 32,000 927 Climbing Chicago Center
Mon 07:58:26 PM 42.8619 -87.3581 84° East 474 545 32,900 1,122 Climbing Chicago Center
Mon 07:59:28 PM 42.8772 -87.1742 83° East 487 560 34,300 1,902 Climbing Chicago Center
Mon 08:00:29 PM 42.8939 -86.9953 83° East 480 552 36,800 2,341 Climbing Chicago Center
Mon 08:01:31 PM 42.9158 -86.7961 81° East 448 516 39,100 1,839 Climbing Chicago Center
Mon 08:02:33 PM 42.9319 -86.6319 82° East 439 505 40,600 1,463 Climbing Chicago Center
Mon 08:03:34 PM 42.9483 -86.4697 82° East 436 502 42,100 1,220 Climbing Chicago Center
Mon 08:04:36 PM 42.9642 -86.3108 82° East 426 490 43,100 774 Climbing Chicago Center
Mon 08:05:38 PM 42.9783 -86.1528 83° East 424 488 43,700 585 Climbing Chicago Center
Mon 08:06:39 PM 42.9961 -85.9769 82° East 436 502 44,300 634 Climbing Chicago Center
Mon 08:07:41 PM 43.0114 -85.7975 83° East 446 513 45,000 339 Climbing Chicago Center
Mon 08:08:43 PM 43.0278 -85.6342 82° East 442 509 45,000  Level Chicago Center
Mon 08:09:44 PM 43.0436 -85.4636 83° East 450 518 45,000  Level Chicago Center
Mon 08:10:46 PM 43.0583 -85.2903 83° East 458 527 45,000  Level Chicago Center
Mon 08:11:48 PM 43.0742 -85.1133 83° East 468 539 45,000  Level Chicago Center
Mon 08:12:49 PM 43.0931 -84.9044 83° East 464 534 45,000  Level Chicago Center
Mon 08:13:51 PM 43.1072 -84.7294 84° East 465 535 45,000  Level Chicago Center
Mon 08:14:53 PM 43.1217 -84.5517 84° East 470 541 45,000  Level Chicago Center
Mon 08:15:54 PM 43.1356 -84.3739 84° East 472 543 45,000  Level Chicago Center
Mon 08:16:56 PM 43.1503 -84.1950 84° East 474 545 45,000  Level Chicago Center
Mon 08:17:57 PM 43.1647 -84.0142 84° East 478 550 45,000  Level Chicago Center
Mon 08:18:59 PM 43.1783 -83.8361 84° East 474 545 45,000  Level Chicago Center
Mon 08:20:01 PM 43.1956 -83.6219 84° East 473 544 45,000  Level Chicago Center
Mon 08:21:02 PM 43.2083 -83.4436 84° East 471 542 45,000  Level Chicago Center
Mon 08:22:04 PM 43.2206 -83.2653 85° East 471 542 45,000  Level Chicago Center
Mon 08:23:23 PM 43.2347 -83.0225 85° East 477 549 45,000  Level Cleveland Center
Mon 08:24:23 PM 43.2464 -82.8575 84° East 462 532 45,000  Level Cleveland Center
Mon 08:25:23 PM 43.2497 -82.6811 88° East 455 524 45,000  Level Cleveland Center
Mon 08:26:23 PM 43.2586 -82.5272 85° East 455 524 45,000  Level Cleveland Center
Mon 08:27:04 PM 43.2167 -82.3833 112° Southeast 460 529 45,000  Level Toronto Center
Mon 08:28:04 PM 43.2000 -82.2167 98° East 460 529 45,000  Level Toronto Center
Mon 08:29:04 PM 43.1833 -82.0333 97° East 460 529 45,000  Level Toronto Center
Mon 08:30:04 PM 43.1833 -81.8500 90° East 460 529 45,000  Level Toronto Center
Mon 08:31:04 PM 43.1667 -81.6833 98° East 460 529 45,000  Level Toronto Center
Mon 08:32:04 PM 43.1500 -81.5000 97° East 460 529 45,000  Level Toronto Center
Mon 08:33:04 PM 43.1500 -81.3500 90° East 460 529 45,000  Level Toronto Center
Mon 08:34:04 PM 43.1333 -81.1667 97° East 460 529 45,000  Level Toronto Center
Mon 08:35:04 PM 43.1167 -80.9833 97° East 460 529 45,000  Level Toronto Center
Mon 08:36:04 PM 43.1000 -80.8167 98° East 460 529 45,000  Level Toronto Center
Mon 08:38:04 PM 43.0833 -80.4833 94° East 460 529 45,000  Level Toronto Center
Mon 08:39:04 PM 43.0667 -80.3000 97° East 460 529 45,000  Level Toronto Center
Mon 08:40:04 PM 43.0500 -80.1333 98° East 460 529 45,000  Level Toronto Center
Mon 08:41:04 PM 43.0333 -79.9500 97° East 460 529 45,000  Level Toronto Center
Mon 08:42:04 PM 43.0167 -79.8000 99° East 450 518 45,000  Level Toronto Center
Mon 08:43:04 PM 43.0167 -79.6167 90° East 450 518 45,000  Level Toronto Center
Mon 08:44:04 PM 43.0000 -79.4333 97° East 450 518 45,000  Level Toronto Center
Mon 08:45:04 PM 42.9833 -79.2667 98° East 460 529 45,000  Level Toronto Center
Mon 08:46:04 PM 42.9667 -79.1167 99° East 450 518 45,000  Level Toronto Center
Mon 08:47:04 PM 42.9500 -78.9333 97° East 460 529 45,000  Level Toronto Center
Mon 08:48:04 PM 42.9333 -78.7500 97° East 460 529 45,000  Level Toronto Center
Mon 08:49:04 PM 42.9167 -78.5667 97° East 460 529 45,000  Level Toronto Center
Mon 08:50:04 PM 42.8667 -78.4000 112° Southeast 460 529 45,000 -561 Level Toronto Center
Mon 08:51:23 PM 42.8486 -78.2128 97° East 458 527 43,700 -1,165 Descending Cleveland Center
Mon 08:52:23 PM 42.8133 -78.0303 105° East 469 540 42,300 -1,450 Descending Cleveland Center
Mon 08:53:23 PM 42.7803 -77.8533 104° East 475 547 40,800 -2,200 Descending Cleveland Center
Mon 08:54:23 PM 42.7447 -77.6794 106° East 475 547 37,900 -2,750 Descending Cleveland Center
Mon 08:55:23 PM 42.7139 -77.5339 106° East 462 532 35,300 -2,400 Descending Cleveland Center
Mon 08:56:23 PM 42.6800 -77.3606 105° East 462 532 33,100 -857 Descending Cleveland Center
Mon 08:58:04 PM 42.6000 -77.0333 108° East 480 552 33,000 -37 Descending Toronto Center
Mon 08:59:04 PM 42.5667 -76.8500 104° East 490 564 33,000  Level Toronto Center
Mon 09:00:04 PM 42.5167 -76.6667 110° East 490 564 33,000  Level Toronto Center
Mon 09:01:04 PM 42.5000 -76.4833 97° East 490 564 33,000  Level Toronto Center
Mon 09:02:04 PM 42.4667 -76.3333 107° East 470 541 33,000 -250 Level Toronto Center
Mon 09:03:04 PM 42.4333 -76.1500 104° East 470 541 32,500 -900 Descending Toronto Center
Mon 09:04:04 PM 42.3833 -75.9833 112° Southeast 460 529 31,200 -1,450 Descending Toronto Center
Mon 09:05:04 PM 42.3500 -75.8167 105° East 460 529 29,600 -2,000 Descending Toronto Center
Mon 09:06:04 PM 42.3333 -75.6500 98° East 480 552 27,200 -2,350 Descending Toronto Center
Mon 09:07:04 PM 42.2833 -75.4667 110° East 480 552 24,900 -2,250 Descending Toronto Center
Mon 09:08:04 PM 42.2500 -75.2833 104° East 470 541 22,700 -1,758 Descending Toronto Center
Mon 09:08:43 PM 42.2464 -75.2700 110° East 477 549 22,000 -1,939 Descending Boston Center
Mon 09:09:43 PM 42.2050 -75.0833 107° East 468 539 19,500 -2,000 Descending Boston Center
Mon 09:10:43 PM 42.1708 -74.9333 107° East 431 496 18,000 -750 Descending Boston Center
Mon 09:11:43 PM 42.1111 -74.7967 120° Southeast 417 480 18,000  Level Boston Center
Mon 09:12:43 PM 42.0414 -74.6344 120° Southeast 429 494 18,000 -500 Level Boston Center
Mon 09:13:43 PM 41.9817 -74.4900 119° Southeast 446 513 17,000 -1,200 Descending Boston Center
Mon 09:14:43 PM 41.9217 -74.3486 120° Southeast 441 507 15,600 -1,550 Descending Boston Center
Mon 09:15:43 PM 41.8633 -74.2158 121° Southeast 429 494 13,900 -1,600 Descending Boston Center
Mon 09:16:43 PM 41.8067 -74.0972 123° Southeast 403 464 12,400 -1,300 Descending Boston Center
Mon 09:17:43 PM 41.7392 -74.0231 141° Southeast 306 352 11,300 -1,300 Descending Boston Center
Mon 09:18:43 PM 41.6583 -73.9906 163° South 301 346 9,800 -1,418 Descending Boston Center
Mon 09:19:33 PM 41.5833 -73.9500 158° South 313 360 8,700 -1,364 Descending New York TRACON
Mon 09:20:33 PM 41.5167 -73.9167 159° South 308 354 7,300 -1,300 Descending New York TRACON
Mon 09:21:33 PM 41.4333 -73.8833 163° South 277 319 6,100 -1,250 Descending New York TRACON
Mon 09:22:33 PM 41.3667 -73.8167 143° Southeast 285 328 4,800 -1,250 Descending New York TRACON
Mon 09:23:33 PM 41.3000 -73.7667 151° Southeast 291 335 3,600 -900 Descending New York TRACON
Mon 09:24:33 PM 41.2333 -73.7000 143° Southeast 279 321 3,000 -300 Descending New York TRACON
Mon 09:25:33 PM 41.1833 -73.6500 143° Southeast 258 297 3,000  Level New York TRACON
Mon 09:26:33 PM 41.1333 -73.6000 143° Southeast 212 244 3,000 -244 Level New York TRACON
Mon 09:29:00 PM 41.0667 -73.7000 246° West  Level FlightAware Approximate
Mon 09:29:39 PM 40.9833 -73.5667 246° West 189 217 2,000  Level New York TRACON
Mon 09:31:33 PM 40.9833 -73.6500 270° West 137 158 2,000  Level New York TRACON

Login

Don't have an account? Register now (free) for customized features, flight alerts, and more!